sensor_id;sensor_type;location;lat;lon;timestamp;pressure;altitude;pressure_sealevel;temperature;humidity
11077;BME280;5591;42.626;23.380;2023-05-03T00:00:41;94556.31;;;14.88;52.44
11077;BME280;5591;42.626;23.380;2023-05-03T00:03:08;94555.72;;;14.66;52.75
11077;BME280;5591;42.626;23.380;2023-05-03T00:05:37;94569.75;;;14.60;52.75
11077;BME280;5591;42.626;23.380;2023-05-03T00:08:04;94570.97;;;14.58;52.73
11077;BME280;5591;42.626;23.380;2023-05-03T00:10:32;94597.97;;;14.73;52.23
11077;BME280;5591;42.626;23.380;2023-05-03T00:12:59;94568.91;;;14.73;52.49
11077;BME280;5591;42.626;23.380;2023-05-03T00:15:26;94561.81;;;14.28;53.45
11077;BME280;5591;42.626;23.380;2023-05-03T00:17:52;94552.06;;;14.48;52.82
11077;BME280;5591;42.626;23.380;2023-05-03T00:20:19;94559.41;;;14.46;52.66
11077;BME280;5591;42.626;23.380;2023-05-03T00:22:48;94564.06;;;14.50;52.83
11077;BME280;5591;42.626;23.380;2023-05-03T00:25:14;94573.63;;;14.51;53.33
11077;BME280;5591;42.626;23.380;2023-05-03T00:27:41;94560.81;;;14.55;52.73
11077;BME280;5591;42.626;23.380;2023-05-03T00:30:09;94492.13;;;13.90;53.37
11077;BME280;5591;42.626;23.380;2023-05-03T00:32:39;94581.53;;;14.58;53.08
11077;BME280;5591;42.626;23.380;2023-05-03T00:35:06;94579.69;;;14.32;53.15
11077;BME280;5591;42.626;23.380;2023-05-03T00:37:33;94576.88;;;14.34;53.37
11077;BME280;5591;42.626;23.380;2023-05-03T00:40:02;94571.34;;;14.35;53.17
11077;BME280;5591;42.626;23.380;2023-05-03T00:42:29;94577.25;;;14.31;53.29
11077;BME280;5591;42.626;23.380;2023-05-03T00:44:56;94566.22;;;14.08;53.08
11077;BME280;5591;42.626;23.380;2023-05-03T00:47:23;94574.94;;;13.95;53.36
11077;BME280;5591;42.626;23.380;2023-05-03T00:49:50;94570.28;;;13.97;54.18
11077;BME280;5591;42.626;23.380;2023-05-03T00:52:17;94570.91;;;14.12;53.60
11077;BME280;5591;42.626;23.380;2023-05-03T00:54:44;94560.91;;;13.82;53.69
11077;BME280;5591;42.626;23.380;2023-05-03T00:57:12;94568.69;;;14.09;53.28
11077;BME280;5591;42.626;23.380;2023-05-03T00:59:39;94560.09;;;13.94;53.31
11077;BME280;5591;42.626;23.380;2023-05-03T01:02:07;94555.47;;;13.96;53.88
11077;BME280;5591;42.626;23.380;2023-05-03T01:04:34;94563.16;;;14.04;53.38
11077;BME280;5591;42.626;23.380;2023-05-03T01:07:07;94553.44;;;14.05;53.03
11077;BME280;5591;42.626;23.380;2023-05-03T01:09:45;94546.53;;;14.04;53.78
11077;BME280;5591;42.626;23.380;2023-05-03T01:12:31;94535.56;;;14.00;53.71
11077;BME280;5591;42.626;23.380;2023-05-03T01:15:06;94545.94;;;14.02;53.48
11077;BME280;5591;42.626;23.380;2023-05-03T01:17:41;94540.84;;;14.00;53.28
11077;BME280;5591;42.626;23.380;2023-05-03T01:20:13;94530.53;;;14.12;53.03
11077;BME280;5591;42.626;23.380;2023-05-03T01:22:48;94524.59;;;13.90;53.72
11077;BME280;5591;42.626;23.380;2023-05-03T01:25:17;94540.44;;;13.97;53.98
11077;BME280;5591;42.626;23.380;2023-05-03T01:27:44;94529.47;;;13.93;54.22
11077;BME280;5591;42.626;23.380;2023-05-03T01:30:11;94394.84;;;13.28;53.80
11077;BME280;5591;42.626;23.380;2023-05-03T01:32:48;94521.34;;;13.82;54.46
11077;BME280;5591;42.626;23.380;2023-05-03T01:35:25;94518.09;;;13.73;55.47
11077;BME280;5591;42.626;23.380;2023-05-03T01:37:54;94509.94;;;13.75;55.38
11077;BME280;5591;42.626;23.380;2023-05-03T01:40:24;94514.38;;;13.61;56.07
11077;BME280;5591;42.626;23.380;2023-05-03T01:42:54;94516.47;;;13.85;55.17
11077;BME280;5591;42.626;23.380;2023-05-03T01:45:21;94502.06;;;13.94;55.06
11077;BME280;5591;42.626;23.380;2023-05-03T01:47:48;94507.91;;;13.70;55.54
11077;BME280;5591;42.626;23.380;2023-05-03T01:50:15;94495.31;;;13.59;55.47
11077;BME280;5591;42.626;23.380;2023-05-03T01:52:42;94493.69;;;13.52;56.15
11077;BME280;5591;42.626;23.380;2023-05-03T01:55:09;94499.09;;;13.37;56.29
11077;BME280;5591;42.626;23.380;2023-05-03T01:57:37;94502.81;;;13.62;56.04
11077;BME280;5591;42.626;23.380;2023-05-03T02:00:05;94498.38;;;13.63;55.83
11077;BME280;5591;42.626;23.380;2023-05-03T02:02:32;94489.03;;;13.60;56.47
11077;BME280;5591;42.626;23.380;2023-05-03T02:04:59;94476.00;;;13.46;56.81
11077;BME280;5591;42.626;23.380;2023-05-03T02:07:26;94473.16;;;13.41;57.05
11077;BME280;5591;42.626;23.380;2023-05-03T02:09:52;94467.88;;;13.28;57.89
11077;BME280;5591;42.626;23.380;2023-05-03T02:12:19;94472.56;;;13.45;57.09
11077;BME280;5591;42.626;23.380;2023-05-03T02:14:47;94362.50;;;12.81;57.24
11077;BME280;5591;42.626;23.380;2023-05-03T02:17:14;94484.09;;;13.31;57.58
11077;BME280;5591;42.626;23.380;2023-05-03T02:19:43;94478.44;;;13.34;57.81
11077;BME280;5591;42.626;23.380;2023-05-03T02:22:10;94486.34;;;13.34;57.79
11077;BME280;5591;42.626;23.380;2023-05-03T02:24:36;94488.81;;;13.55;57.57
11077;BME280;5591;42.626;23.380;2023-05-03T02:27:04;94480.44;;;13.32;57.69
11077;BME280;5591;42.626;23.380;2023-05-03T02:29:31;94479.88;;;13.43;57.79
11077;BME280;5591;42.626;23.380;2023-05-03T02:31:59;94484.91;;;13.32;58.78
11077;BME280;5591;42.626;23.380;2023-05-03T02:34:26;94486.78;;;13.44;57.98
11077;BME280;5591;42.626;23.380;2023-05-03T02:36:53;94478.03;;;13.37;57.98
11077;BME280;5591;42.626;23.380;2023-05-03T02:39:20;94482.69;;;13.42;58.56
11077;BME280;5591;42.626;23.380;2023-05-03T02:41:46;94486.34;;;13.41;58.15
11077;BME280;5591;42.626;23.380;2023-05-03T02:44:13;94480.38;;;13.13;60.06
11077;BME280;5591;42.626;23.380;2023-05-03T02:46:40;94472.84;;;13.03;60.29
11077;BME280;5591;42.626;23.380;2023-05-03T02:49:08;94457.13;;;12.89;61.37
11077;BME280;5591;42.626;23.380;2023-05-03T02:51:35;94470.84;;;13.12;61.01
11077;BME280;5591;42.626;23.380;2023-05-03T02:54:02;94469.38;;;13.03;61.55
11077;BME280;5591;42.626;23.380;2023-05-03T02:56:29;94471.06;;;13.17;60.81
11077;BME280;5591;42.626;23.380;2023-05-03T02:58:57;94394.50;;;12.84;60.79
11077;BME280;5591;42.626;23.380;2023-05-03T03:01:24;94469.34;;;12.96;61.27
11077;BME280;5591;42.626;23.380;2023-05-03T03:03:52;94468.78;;;13.01;62.07
11077;BME280;5591;42.626;23.380;2023-05-03T03:06:20;94466.78;;;13.09;62.17
11077;BME280;5591;42.626;23.380;2023-05-03T03:08:47;94466.13;;;12.94;63.19
11077;BME280;5591;42.626;23.380;2023-05-03T03:11:14;94461.84;;;12.93;62.51
11077;BME280;5591;42.626;23.380;2023-05-03T03:13:40;94467.56;;;12.97;63.71
11077;BME280;5591;42.626;23.380;2023-05-03T03:16:07;94464.66;;;12.92;63.52
11077;BME280;5591;42.626;23.380;2023-05-03T03:18:34;94469.88;;;12.85;64.01
11077;BME280;5591;42.626;23.380;2023-05-03T03:21:01;94472.06;;;13.09;62.81
11077;BME280;5591;42.626;23.380;2023-05-03T03:23:30;94425.41;;;12.97;62.81
11077;BME280;5591;42.626;23.380;2023-05-03T03:25:56;94470.03;;;13.05;63.18
11077;BME280;5591;42.626;23.380;2023-05-03T03:28:23;94477.94;;;13.05;63.54
11077;BME280;5591;42.626;23.380;2023-05-03T03:30:50;94488.56;;;12.90;62.19
11077;BME280;5591;42.626;23.380;2023-05-03T03:33:17;94496.00;;;13.21;62.06
11077;BME280;5591;42.626;23.380;2023-05-03T03:35:44;94478.66;;;12.92;62.44
11077;BME280;5591;42.626;23.380;2023-05-03T03:38:10;94505.63;;;12.94;63.45
11077;BME280;5591;42.626;23.380;2023-05-03T03:40:39;94504.28;;;13.05;63.16
11077;BME280;5591;42.626;23.380;2023-05-03T03:43:05;94516.50;;;13.19;62.06
11077;BME280;5591;42.626;23.380;2023-05-03T03:45:32;94503.78;;;13.35;60.69
11077;BME280;5591;42.626;23.380;2023-05-03T03:47:59;94508.88;;;13.43;60.69
11077;BME280;5591;42.626;23.380;2023-05-03T03:50:26;94515.78;;;13.44;60.14
11077;BME280;5591;42.626;23.380;2023-05-03T03:52:53;94518.44;;;13.64;58.88
11077;BME280;5591;42.626;23.380;2023-05-03T03:55:20;94521.47;;;13.54;59.21
11077;BME280;5591;42.626;23.380;2023-05-03T03:57:48;94523.72;;;13.64;58.93
11077;BME280;5591;42.626;23.380;2023-05-03T04:00:15;94540.94;;;13.53;58.88
11077;BME280;5591;42.626;23.380;2023-05-03T04:02:42;94518.75;;;13.35;60.25
11077;BME280;5591;42.626;23.380;2023-05-03T04:05:08;94538.44;;;13.32;60.39
11077;BME280;5591;42.626;23.380;2023-05-03T04:07:36;94542.28;;;13.30;60.31
11077;BME280;5591;42.626;23.380;2023-05-03T04:10:03;94533.34;;;13.31;60.38
11077;BME280;5591;42.626;23.380;2023-05-03T04:12:30;94536.03;;;13.44;60.49
11077;BME280;5591;42.626;23.380;2023-05-03T04:14:59;94549.91;;;13.59;60.46
11077;BME280;5591;42.626;23.380;2023-05-03T04:17:26;94547.38;;;13.38;60.23
11077;BME280;5591;42.626;23.380;2023-05-03T04:19:53;94556.97;;;13.52;60.79
11077;BME280;5591;42.626;23.380;2023-05-03T04:22:20;94546.44;;;13.58;60.68
11077;BME280;5591;42.626;23.380;2023-05-03T04:24:47;94557.78;;;13.52;61.96
11077;BME280;5591;42.626;23.380;2023-05-03T04:27:14;94554.94;;;13.07;63.28
11077;BME280;5591;42.626;23.380;2023-05-03T04:29:42;94562.31;;;13.18;63.30
11077;BME280;5591;42.626;23.380;2023-05-03T04:32:10;94573.78;;;13.44;61.72
11077;BME280;5591;42.626;23.380;2023-05-03T04:34:38;94574.78;;;13.43;60.79
11077;BME280;5591;42.626;23.380;2023-05-03T04:37:07;94573.78;;;13.44;61.57
11077;BME280;5591;42.626;23.380;2023-05-03T04:39:34;94577.66;;;13.55;60.88
11077;BME280;5591;42.626;23.380;2023-05-03T04:42:01;94578.47;;;13.49;60.87
11077;BME280;5591;42.626;23.380;2023-05-03T04:44:29;94580.09;;;13.50;61.92
11077;BME280;5591;42.626;23.380;2023-05-03T04:46:56;94583.78;;;13.15;64.00
11077;BME280;5591;42.626;23.380;2023-05-03T04:49:25;94582.44;;;13.32;63.59
11077;BME280;5591;42.626;23.380;2023-05-03T04:51:52;94578.81;;;13.39;63.21
11077;BME280;5591;42.626;23.380;2023-05-03T04:54:19;94552.66;;;13.38;63.35
11077;BME280;5591;42.626;23.380;2023-05-03T04:56:46;94596.09;;;13.48;65.82
11077;BME280;5591;42.626;23.380;2023-05-03T04:59:13;94597.28;;;13.46;70.60
11077;BME280;5591;42.626;23.380;2023-05-03T05:01:39;94597.06;;;13.41;74.41
11077;BME280;5591;42.626;23.380;2023-05-03T05:04:06;94598.94;;;13.47;73.97
11077;BME280;5591;42.626;23.380;2023-05-03T05:06:35;94610.00;;;12.95;77.51
11077;BME280;5591;42.626;23.380;2023-05-03T05:09:01;94615.16;;;13.10;79.46
11077;BME280;5591;42.626;23.380;2023-05-03T05:11:28;94605.03;;;13.13;82.26
11077;BME280;5591;42.626;23.380;2023-05-03T05:13:56;94610.72;;;13.10;78.59
11077;BME280;5591;42.626;23.380;2023-05-03T05:16:23;94617.75;;;13.44;78.20
11077;BME280;5591;42.626;23.380;2023-05-03T05:18:51;94619.72;;;13.76;76.97
11077;BME280;5591;42.626;23.380;2023-05-03T05:21:17;94608.94;;;13.58;77.36
11077;BME280;5591;42.626;23.380;2023-05-03T05:23:46;94626.03;;;13.75;77.34
11077;BME280;5591;42.626;23.380;2023-05-03T05:26:12;94628.47;;;13.76;77.87
11077;BME280;5591;42.626;23.380;2023-05-03T05:28:39;94626.63;;;13.77;75.97
11077;BME280;5591;42.626;23.380;2023-05-03T05:31:06;94636.69;;;14.01;74.87
11077;BME280;5591;42.626;23.380;2023-05-03T05:33:33;94634.31;;;14.25;71.92
11077;BME280;5591;42.626;23.380;2023-05-03T05:35:59;94634.78;;;14.61;69.32
11077;BME280;5591;42.626;23.380;2023-05-03T05:38:26;94500.38;;;13.48;71.89
11077;BME280;5591;42.626;23.380;2023-05-03T05:40:54;94628.81;;;14.20;70.78
11077;BME280;5591;42.626;23.380;2023-05-03T05:43:21;94629.91;;;14.65;67.46
11077;BME280;5591;42.626;23.380;2023-05-03T05:45:48;94630.31;;;14.81;65.82
11077;BME280;5591;42.626;23.380;2023-05-03T05:48:15;94629.47;;;14.81;64.18
11077;BME280;5591;42.626;23.380;2023-05-03T05:50:42;94624.81;;;14.37;66.55
11077;BME280;5591;42.626;23.380;2023-05-03T05:53:09;94626.44;;;14.58;65.50
11077;BME280;5591;42.626;23.380;2023-05-03T05:55:35;94622.97;;;14.38;66.23
11077;BME280;5591;42.626;23.380;2023-05-03T05:58:03;94660.75;;;14.38;65.94
11077;BME280;5591;42.626;23.380;2023-05-03T06:00:30;94619.91;;;14.41;64.70
11077;BME280;5591;42.626;23.380;2023-05-03T06:02:57;94614.31;;;14.03;66.97
11077;BME280;5591;42.626;23.380;2023-05-03T06:05:24;94622.97;;;13.78;66.85
11077;BME280;5591;42.626;23.380;2023-05-03T06:07:51;94622.78;;;14.39;65.33
11077;BME280;5591;42.626;23.380;2023-05-03T06:10:17;94625.19;;;14.28;64.85
11077;BME280;5591;42.626;23.380;2023-05-03T06:12:44;94608.75;;;14.32;65.21
11077;BME280;5591;42.626;23.380;2023-05-03T06:15:12;94627.81;;;14.21;64.59
11077;BME280;5591;42.626;23.380;2023-05-03T06:17:39;94613.81;;;14.27;64.53
11077;BME280;5591;42.626;23.380;2023-05-03T06:20:07;94617.50;;;14.46;64.91
11077;BME280;5591;42.626;23.380;2023-05-03T06:22:36;94617.88;;;14.94;63.11
11077;BME280;5591;42.626;23.380;2023-05-03T06:25:03;94609.19;;;14.81;62.79
11077;BME280;5591;42.626;23.380;2023-05-03T06:27:30;94623.38;;;14.74;64.56
11077;BME280;5591;42.626;23.380;2023-05-03T06:29:56;94616.44;;;15.31;66.69
11077;BME280;5591;42.626;23.380;2023-05-03T06:32:25;94618.06;;;15.38;66.53
11077;BME280;5591;42.626;23.380;2023-05-03T06:34:51;94605.16;;;15.61;64.29
11077;BME280;5591;42.626;23.380;2023-05-03T06:37:18;94601.41;;;15.12;62.96
11077;BME280;5591;42.626;23.380;2023-05-03T06:39:45;94574.50;;;15.28;62.45
11077;BME280;5591;42.626;23.380;2023-05-03T06:42:12;94604.97;;;15.56;62.31
11077;BME280;5591;42.626;23.380;2023-05-03T06:44:38;94598.59;;;15.77;60.37
11077;BME280;5591;42.626;23.380;2023-05-03T06:47:05;94597.50;;;15.40;62.03
11077;BME280;5591;42.626;23.380;2023-05-03T06:49:34;94625.16;;;15.38;60.94
11077;BME280;5591;42.626;23.380;2023-05-03T06:52:00;94584.00;;;15.61;60.66
11077;BME280;5591;42.626;23.380;2023-05-03T06:54:27;94578.25;;;15.71;60.10
11077;BME280;5591;42.626;23.380;2023-05-03T06:56:54;94589.78;;;15.32;62.17
11077;BME280;5591;42.626;23.380;2023-05-03T06:59:21;94567.56;;;15.46;62.89
11077;BME280;5591;42.626;23.380;2023-05-03T07:01:48;94571.94;;;15.72;62.19
11077;BME280;5591;42.626;23.380;2023-05-03T07:04:15;94574.94;;;15.31;64.31
11077;BME280;5591;42.626;23.380;2023-05-03T07:06:44;94574.78;;;15.00;65.62
11077;BME280;5591;42.626;23.380;2023-05-03T07:09:10;94576.75;;;15.31;64.34
11077;BME280;5591;42.626;23.380;2023-05-03T07:11:38;94583.69;;;15.19;65.66
11077;BME280;5591;42.626;23.380;2023-05-03T07:14:09;94584.53;;;15.06;66.99
11077;BME280;5591;42.626;23.380;2023-05-03T07:16:35;94585.75;;;15.04;66.64
11077;BME280;5591;42.626;23.380;2023-05-03T07:19:02;94581.84;;;15.26;66.13
11077;BME280;5591;42.626;23.380;2023-05-03T07:21:29;94576.53;;;15.39;65.31
11077;BME280;5591;42.626;23.380;2023-05-03T07:23:57;94563.84;;;15.60;65.38
11077;BME280;5591;42.626;23.380;2023-05-03T07:26:24;94564.53;;;15.36;66.68
11077;BME280;5591;42.626;23.380;2023-05-03T07:28:51;94577.91;;;15.54;66.10
11077;BME280;5591;42.626;23.380;2023-05-03T07:31:18;94571.59;;;15.55;65.98
11077;BME280;5591;42.626;23.380;2023-05-03T07:33:46;94557.59;;;15.86;65.71
11077;BME280;5591;42.626;23.380;2023-05-03T07:36:13;94556.16;;;15.52;66.69
11077;BME280;5591;42.626;23.380;2023-05-03T07:38:39;94437.69;;;14.47;68.40
11077;BME280;5591;42.626;23.380;2023-05-03T07:41:07;94572.94;;;15.14;69.97
11077;BME280;5591;42.626;23.380;2023-05-03T07:43:34;94564.56;;;15.23;70.58
11077;BME280;5591;42.626;23.380;2023-05-03T07:46:01;94563.50;;;15.50;68.69
11077;BME280;5591;42.626;23.380;2023-05-03T07:48:28;94559.56;;;15.66;67.93
11077;BME280;5591;42.626;23.380;2023-05-03T07:50:55;94556.19;;;15.46;71.28
11077;BME280;5591;42.626;23.380;2023-05-03T07:53:22;94604.78;;;15.51;71.32
11077;BME280;5591;42.626;23.380;2023-05-03T07:55:52;94562.31;;;15.33;72.23
11077;BME280;5591;42.626;23.380;2023-05-03T07:58:21;94571.00;;;15.53;72.29
11077;BME280;5591;42.626;23.380;2023-05-03T08:00:47;94574.25;;;16.30;67.89
11077;BME280;5591;42.626;23.380;2023-05-03T08:03:14;94568.75;;;16.32;67.16
11077;BME280;5591;42.626;23.380;2023-05-03T08:05:41;94559.25;;;16.49;66.25
11077;BME280;5591;42.626;23.380;2023-05-03T08:08:08;94556.44;;;16.44;67.03
11077;BME280;5591;42.626;23.380;2023-05-03T08:10:34;94565.88;;;16.40;67.16
11077;BME280;5591;42.626;23.380;2023-05-03T08:13:03;94550.50;;;16.73;64.86
11077;BME280;5591;42.626;23.380;2023-05-03T08:15:31;94549.19;;;17.24;62.55
11077;BME280;5591;42.626;23.380;2023-05-03T08:17:58;94554.88;;;17.46;62.43
11077;BME280;5591;42.626;23.380;2023-05-03T08:20:25;94555.25;;;17.49;62.00
11077;BME280;5591;42.626;23.380;2023-05-03T08:22:52;94563.41;;;17.65;60.75
11077;BME280;5591;42.626;23.380;2023-05-03T08:25:21;94552.78;;;17.83;60.34
11077;BME280;5591;42.626;23.380;2023-05-03T08:27:50;94551.88;;;18.19;58.11
11077;BME280;5591;42.626;23.380;2023-05-03T08:30:16;94545.25;;;18.10;59.99
11077;BME280;5591;42.626;23.380;2023-05-03T08:32:45;94554.91;;;18.22;57.85
11077;BME280;5591;42.626;23.380;2023-05-03T08:35:12;94558.53;;;18.10;58.37
11077;BME280;5591;42.626;23.380;2023-05-03T08:37:40;94547.84;;;17.51;63.08
11077;BME280;5591;42.626;23.380;2023-05-03T08:40:08;94558.19;;;18.06;60.20
11077;BME280;5591;42.626;23.380;2023-05-03T08:42:40;94554.56;;;17.89;60.85
11077;BME280;5591;42.626;23.380;2023-05-03T08:45:09;94556.59;;;17.87;61.07
11077;BME280;5591;42.626;23.380;2023-05-03T08:47:37;94544.88;;;17.95;60.48
11077;BME280;5591;42.626;23.380;2023-05-03T08:50:07;94560.94;;;17.82;62.70
11077;BME280;5591;42.626;23.380;2023-05-03T08:52:35;94556.94;;;18.38;60.20
11077;BME280;5591;42.626;23.380;2023-05-03T08:55:03;94564.03;;;17.67;62.30
11077;BME280;5591;42.626;23.380;2023-05-03T08:57:30;94555.53;;;18.36;61.10
11077;BME280;5591;42.626;23.380;2023-05-03T08:59:59;94454.88;;;17.87;60.53
11077;BME280;5591;42.626;23.380;2023-05-03T09:02:26;94566.72;;;18.79;58.78
11077;BME280;5591;42.626;23.380;2023-05-03T09:04:53;94565.50;;;19.27;56.98
11077;BME280;5591;42.626;23.380;2023-05-03T09:07:23;94564.91;;;19.48;55.98
11077;BME280;5591;42.626;23.380;2023-05-03T09:09:49;94562.94;;;19.44;56.60
11077;BME280;5591;42.626;23.380;2023-05-03T09:12:34;94545.44;;;19.59;55.69
11077;BME280;5591;42.626;23.380;2023-05-03T09:15:01;94544.09;;;20.40;54.24
11077;BME280;5591;42.626;23.380;2023-05-03T09:17:30;94545.13;;;19.84;55.85
11077;BME280;5591;42.626;23.380;2023-05-03T09:19:58;94533.94;;;20.70;53.33
11077;BME280;5591;42.626;23.380;2023-05-03T09:22:29;94535.00;;;21.19;51.16
11077;BME280;5591;42.626;23.380;2023-05-03T09:24:58;94525.44;;;21.82;50.87
11077;BME280;5591;42.626;23.380;2023-05-03T09:27:25;94539.91;;;20.77;52.65
11077;BME280;5591;42.626;23.380;2023-05-03T09:29:53;94524.59;;;21.77;49.02
11077;BME280;5591;42.626;23.380;2023-05-03T09:32:20;94526.69;;;21.96;48.90
11077;BME280;5591;42.626;23.380;2023-05-03T09:34:48;94526.28;;;21.83;48.34
11077;BME280;5591;42.626;23.380;2023-05-03T09:37:15;94436.69;;;20.94;47.95
11077;BME280;5591;42.626;23.380;2023-05-03T09:39:44;94517.22;;;21.08;49.23
11077;BME280;5591;42.626;23.380;2023-05-03T09:42:14;94503.53;;;21.80;48.37
11077;BME280;5591;42.626;23.380;2023-05-03T09:44:43;94499.66;;;22.19;47.92
11077;BME280;5591;42.626;23.380;2023-05-03T09:47:13;94498.44;;;22.05;47.27
11077;BME280;5591;42.626;23.380;2023-05-03T09:49:40;94493.84;;;22.49;47.27
11077;BME280;5591;42.626;23.380;2023-05-03T09:52:08;94496.03;;;22.57;46.64
11077;BME280;5591;42.626;23.380;2023-05-03T09:54:35;94498.56;;;22.42;47.06
11077;BME280;5591;42.626;23.380;2023-05-03T09:57:05;94492.66;;;22.71;46.89
11077;BME280;5591;42.626;23.380;2023-05-03T09:59:33;94494.63;;;22.49;47.05
11077;BME280;5591;42.626;23.380;2023-05-03T10:02:02;94477.88;;;22.06;48.24
11077;BME280;5591;42.626;23.380;2023-05-03T10:04:37;94489.84;;;22.88;47.82
11077;BME280;5591;42.626;23.380;2023-05-03T10:07:08;94495.25;;;22.61;46.91
11077;BME280;5591;42.626;23.380;2023-05-03T10:09:38;94498.88;;;22.19;48.01
11077;BME280;5591;42.626;23.380;2023-05-03T10:12:08;94501.22;;;22.15;48.67
11077;BME280;5591;42.626;23.380;2023-05-03T10:14:39;94496.28;;;22.02;48.83
11077;BME280;5591;42.626;23.380;2023-05-03T10:17:08;94485.00;;;22.80;48.74
11077;BME280;5591;42.626;23.380;2023-05-03T10:19:42;94479.50;;;22.96;48.11
11077;BME280;5591;42.626;23.380;2023-05-03T10:22:11;94462.66;;;23.01;47.28
11077;BME280;5591;42.626;23.380;2023-05-03T10:25:08;94467.97;;;22.96;47.36
11077;BME280;5591;42.626;23.380;2023-05-03T10:27:49;94458.78;;;23.18;46.68
11077;BME280;5591;42.626;23.380;2023-05-03T10:30:29;94431.31;;;23.47;45.77
11077;BME280;5591;42.626;23.380;2023-05-03T10:32:57;94454.19;;;23.13;46.10
11077;BME280;5591;42.626;23.380;2023-05-03T10:35:28;94450.59;;;24.26;44.43
11077;BME280;5591;42.626;23.380;2023-05-03T10:37:55;94442.31;;;24.52;44.47
11077;BME280;5591;42.626;23.380;2023-05-03T10:40:23;94452.75;;;24.39;43.98
11077;BME280;5591;42.626;23.380;2023-05-03T10:42:53;94440.16;;;25.04;42.36
11077;BME280;5591;42.626;23.380;2023-05-03T10:45:23;94440.44;;;24.88;42.53
11077;BME280;5591;42.626;23.380;2023-05-03T10:48:17;94453.88;;;24.63;42.05
11077;BME280;5591;42.626;23.380;2023-05-03T10:50:47;94460.16;;;23.25;44.55
11077;BME280;5591;42.626;23.380;2023-05-03T10:53:36;94454.06;;;23.45;44.47
11077;BME280;5591;42.626;23.380;2023-05-03T10:56:04;94462.59;;;22.91;44.65
11077;BME280;5591;42.626;23.380;2023-05-03T10:58:35;94463.25;;;23.12;44.23
11077;BME280;5591;42.626;23.380;2023-05-03T11:01:03;94437.59;;;23.16;44.81
11077;BME280;5591;42.626;23.380;2023-05-03T11:03:48;94466.09;;;22.96;45.46
11077;BME280;5591;42.626;23.380;2023-05-03T11:06:28;94364.81;;;22.42;44.73
11077;BME280;5591;42.626;23.380;2023-05-03T11:08:55;94427.13;;;23.76;44.31
11077;BME280;5591;42.626;23.380;2023-05-03T11:11:22;94435.84;;;23.37;44.56
11077;BME280;5591;42.626;23.380;2023-05-03T11:13:51;94444.75;;;23.57;44.19
11077;BME280;5591;42.626;23.380;2023-05-03T11:16:18;94447.84;;;23.86;43.84
11077;BME280;5591;42.626;23.380;2023-05-03T11:18:45;94447.59;;;23.31;44.60
11077;BME280;5591;42.626;23.380;2023-05-03T11:21:13;94435.22;;;23.20;45.72
11077;BME280;5591;42.626;23.380;2023-05-03T11:23:40;94441.94;;;23.22;45.66
11077;BME280;5591;42.626;23.380;2023-05-03T11:26:08;94424.72;;;23.70;44.86
11077;BME280;5591;42.626;23.380;2023-05-03T11:28:36;94327.66;;;23.63;44.62
11077;BME280;5591;42.626;23.380;2023-05-03T11:31:05;94420.38;;;25.64;42.26
11077;BME280;5591;42.626;23.380;2023-05-03T11:33:32;94428.69;;;26.64;41.15
11077;BME280;5591;42.626;23.380;2023-05-03T11:36:00;94427.56;;;26.31;40.71
11077;BME280;5591;42.626;23.380;2023-05-03T11:38:29;94430.25;;;27.79;38.98
11077;BME280;5591;42.626;23.380;2023-05-03T11:40:56;94426.72;;;29.53;36.34
11077;BME280;5591;42.626;23.380;2023-05-03T11:43:23;94421.59;;;29.78;35.57
11077;BME280;5591;42.626;23.380;2023-05-03T11:45:52;94403.81;;;28.86;36.58
11077;BME280;5591;42.626;23.380;2023-05-03T11:48:21;94393.63;;;29.69;35.45
11077;BME280;5591;42.626;23.380;2023-05-03T11:50:51;94405.25;;;27.45;37.47
11077;BME280;5591;42.626;23.380;2023-05-03T11:53:20;94407.28;;;27.34;38.23
11077;BME280;5591;42.626;23.380;2023-05-03T11:55:49;94390.25;;;28.91;36.54
11077;BME280;5591;42.626;23.380;2023-05-03T11:58:17;94387.50;;;28.60;36.37
11077;BME280;5591;42.626;23.380;2023-05-03T12:00:45;94372.09;;;29.64;35.24
11077;BME280;5591;42.626;23.380;2023-05-03T12:03:16;94379.72;;;30.60;34.10
11077;BME280;5591;42.626;23.380;2023-05-03T12:05:45;94383.28;;;30.47;33.70
11077;BME280;5591;42.626;23.380;2023-05-03T12:08:12;94394.84;;;29.63;34.62
11077;BME280;5591;42.626;23.380;2023-05-03T12:10:40;94398.06;;;28.43;35.96
11077;BME280;5591;42.626;23.380;2023-05-03T12:13:07;94401.78;;;27.44;37.62
11077;BME280;5591;42.626;23.380;2023-05-03T12:15:35;94397.22;;;26.59;38.84
11077;BME280;5591;42.626;23.380;2023-05-03T12:18:04;94405.50;;;25.86;39.77
11077;BME280;5591;42.626;23.380;2023-05-03T12:20:32;94409.25;;;25.02;40.99
11077;BME280;5591;42.626;23.380;2023-05-03T12:23:01;94366.63;;;24.45;42.53
11077;BME280;5591;42.626;23.380;2023-05-03T12:25:29;94394.22;;;23.86;43.06
11077;BME280;5591;42.626;23.380;2023-05-03T12:27:57;94407.13;;;24.09;43.43
11077;BME280;5591;42.626;23.380;2023-05-03T12:30:24;94413.06;;;21.94;47.48
11077;BME280;5591;42.626;23.380;2023-05-03T12:32:51;94420.47;;;22.13;47.77
11077;BME280;5591;42.626;23.380;2023-05-03T12:35:18;94421.94;;;22.31;48.13
11077;BME280;5591;42.626;23.380;2023-05-03T12:37:46;94420.56;;;21.70;49.25
11077;BME280;5591;42.626;23.380;2023-05-03T12:40:17;94409.50;;;20.97;51.27
11077;BME280;5591;42.626;23.380;2023-05-03T12:42:45;94420.63;;;20.56;53.17
11077;BME280;5591;42.626;23.380;2023-05-03T12:45:11;94423.63;;;20.43;54.72
11077;BME280;5591;42.626;23.380;2023-05-03T12:47:38;94418.34;;;20.48;56.16
11077;BME280;5591;42.626;23.380;2023-05-03T12:50:06;94418.13;;;20.50;56.53
11077;BME280;5591;42.626;23.380;2023-05-03T12:52:35;94402.28;;;20.11;58.70
11077;BME280;5591;42.626;23.380;2023-05-03T12:55:03;94410.34;;;20.48;59.42
11077;BME280;5591;42.626;23.380;2023-05-03T12:57:32;94414.66;;;19.72;66.66
11077;BME280;5591;42.626;23.380;2023-05-03T12:59:59;94409.84;;;19.86;66.81
11077;BME280;5591;42.626;23.380;2023-05-03T13:02:26;94409.28;;;19.56;70.11
11077;BME280;5591;42.626;23.380;2023-05-03T13:04:53;94414.31;;;19.41;74.09